sensor_id;sensor_type;location;lat;lon;timestamp;pressure;altitude;pressure_sealevel;temperature;humidity
28267;BME280;15525;45.568;5.448;2023-02-01T00:00:14;99251.41;;;6.96;56.50
28267;BME280;15525;45.568;5.448;2023-02-01T00:02:40;99252.81;;;6.98;56.93
28267;BME280;15525;45.568;5.448;2023-02-01T00:05:09;99257.13;;;6.99;57.25
28267;BME280;15525;45.568;5.448;2023-02-01T00:07:35;99255.88;;;7.02;56.61
28267;BME280;15525;45.568;5.448;2023-02-01T00:10:01;99250.00;;;6.93;56.61
28267;BME280;15525;45.568;5.448;2023-02-01T00:12:28;99240.56;;;6.66;57.88
28267;BME280;15525;45.568;5.448;2023-02-01T00:14:53;99245.00;;;6.48;58.92
28267;BME280;15525;45.568;5.448;2023-02-01T00:17:19;99250.22;;;6.61;58.81
28267;BME280;15525;45.568;5.448;2023-02-01T00:19:44;99239.72;;;6.72;57.98
28267;BME280;15525;45.568;5.448;2023-02-01T00:22:09;99254.06;;;6.96;57.36
28267;BME280;15525;45.568;5.448;2023-02-01T00:24:35;99252.34;;;7.08;57.26
28267;BME280;15525;45.568;5.448;2023-02-01T00:27:00;99245.31;;;7.13;56.88
28267;BME280;15525;45.568;5.448;2023-02-01T00:29:26;99249.84;;;7.13;56.97
28267;BME280;15525;45.568;5.448;2023-02-01T00:31:51;99258.38;;;7.21;56.74
28267;BME280;15525;45.568;5.448;2023-02-01T00:34:18;99251.00;;;6.99;58.16
28267;BME280;15525;45.568;5.448;2023-02-01T00:36:45;99240.25;;;7.12;57.36
28267;BME280;15525;45.568;5.448;2023-02-01T00:39:10;99253.88;;;7.22;56.61
28267;BME280;15525;45.568;5.448;2023-02-01T00:41:36;99248.13;;;7.00;58.01
28267;BME280;15525;45.568;5.448;2023-02-01T00:44:02;99253.91;;;6.91;58.49
28267;BME280;15525;45.568;5.448;2023-02-01T00:46:27;99237.44;;;7.07;57.57
28267;BME280;15525;45.568;5.448;2023-02-01T00:48:54;99256.06;;;7.07;57.98
28267;BME280;15525;45.568;5.448;2023-02-01T00:51:22;99243.06;;;7.17;57.06
28267;BME280;15525;45.568;5.448;2023-02-01T00:53:49;99253.63;;;7.30;56.77
28267;BME280;15525;45.568;5.448;2023-02-01T00:56:15;99251.91;;;7.35;56.25
28267;BME280;15525;45.568;5.448;2023-02-01T00:58:41;99236.59;;;7.31;56.70
28267;BME280;15525;45.568;5.448;2023-02-01T01:01:18;99250.91;;;7.36;56.39
28267;BME280;15525;45.568;5.448;2023-02-01T01:03:47;99255.75;;;7.39;56.63
28267;BME280;15525;45.568;5.448;2023-02-01T01:06:19;99241.88;;;7.37;56.56
28267;BME280;15525;45.568;5.448;2023-02-01T01:08:46;99247.25;;;6.44;60.08
28267;BME280;15525;45.568;5.448;2023-02-01T01:11:15;99232.53;;;6.73;58.94
28267;BME280;15525;45.568;5.448;2023-02-01T01:13:41;99248.88;;;7.07;58.24
28267;BME280;15525;45.568;5.448;2023-02-01T01:16:08;99249.59;;;7.21;57.92
28267;BME280;15525;45.568;5.448;2023-02-01T01:18:35;99247.41;;;6.49;60.17
28267;BME280;15525;45.568;5.448;2023-02-01T01:21:01;99254.91;;;6.28;61.32
28267;BME280;15525;45.568;5.448;2023-02-01T01:23:29;99247.50;;;6.98;59.35
28267;BME280;15525;45.568;5.448;2023-02-01T01:25:54;99238.59;;;7.11;59.05
28267;BME280;15525;45.568;5.448;2023-02-01T01:28:19;99250.28;;;7.10;59.06
28267;BME280;15525;45.568;5.448;2023-02-01T01:30:45;99265.16;;;7.17;58.79
28267;BME280;15525;45.568;5.448;2023-02-01T01:33:10;99263.31;;;7.18;58.98
28267;BME280;15525;45.568;5.448;2023-02-01T01:35:36;99262.69;;;6.98;59.94
28267;BME280;15525;45.568;5.448;2023-02-01T01:38:01;99257.84;;;7.13;58.58
28267;BME280;15525;45.568;5.448;2023-02-01T01:40:29;99262.34;;;7.37;58.43
28267;BME280;15525;45.568;5.448;2023-02-01T01:42:56;99255.50;;;7.23;58.91
28267;BME280;15525;45.568;5.448;2023-02-01T01:45:33;99263.53;;;7.41;58.13
28267;BME280;15525;45.568;5.448;2023-02-01T01:48:05;99260.00;;;7.47;57.87
28267;BME280;15525;45.568;5.448;2023-02-01T01:50:36;99263.69;;;6.97;59.47
28267;BME280;15525;45.568;5.448;2023-02-01T01:53:07;99268.50;;;7.37;58.57
28267;BME280;15525;45.568;5.448;2023-02-01T01:55:37;99265.22;;;7.35;58.85
28267;BME280;15525;45.568;5.448;2023-02-01T01:58:08;99263.25;;;7.49;57.73
28267;BME280;15525;45.568;5.448;2023-02-01T02:00:36;99257.00;;;6.88;60.34
28267;BME280;15525;45.568;5.448;2023-02-01T02:03:13;99248.09;;;7.25;59.35
28267;BME280;15525;45.568;5.448;2023-02-01T02:05:40;99259.78;;;7.24;59.53
28267;BME280;15525;45.568;5.448;2023-02-01T02:08:06;99250.81;;;7.43;58.40
28267;BME280;15525;45.568;5.448;2023-02-01T02:10:31;99252.63;;;7.49;57.98
28267;BME280;15525;45.568;5.448;2023-02-01T02:13:16;99239.78;;;7.39;58.39
28267;BME280;15525;45.568;5.448;2023-02-01T02:16:38;99241.34;;;7.47;58.53
28267;BME280;15525;45.568;5.448;2023-02-01T02:21:55;99250.69;;;7.56;57.93
28267;BME280;15525;45.568;5.448;2023-02-01T02:27:06;99252.09;;;7.58;58.32
28267;BME280;15525;45.568;5.448;2023-02-01T02:30:51;99263.53;;;7.41;58.79
28267;BME280;15525;45.568;5.448;2023-02-01T02:38:20;99240.03;;;7.56;58.56
28267;BME280;15525;45.568;5.448;2023-02-01T02:43:46;99228.88;;;7.65;58.32
28267;BME280;15525;45.568;5.448;2023-02-01T02:46:46;99229.25;;;7.69;57.64
28267;BME280;15525;45.568;5.448;2023-02-01T02:49:43;99232.72;;;7.69;58.11
28267;BME280;15525;45.568;5.448;2023-02-01T02:52:37;99221.00;;;7.34;59.58
28267;BME280;15525;45.568;5.448;2023-02-01T02:55:23;99221.38;;;7.56;58.24
28267;BME280;15525;45.568;5.448;2023-02-01T02:57:50;99224.34;;;7.66;58.09
28267;BME280;15525;45.568;5.448;2023-02-01T03:00:35;99216.34;;;7.66;57.97
28267;BME280;15525;45.568;5.448;2023-02-01T03:03:20;99214.72;;;7.47;58.47
28267;BME280;15525;45.568;5.448;2023-02-01T03:06:12;99212.53;;;7.62;57.59
28267;BME280;15525;45.568;5.448;2023-02-01T03:08:39;99218.72;;;7.56;58.47
28267;BME280;15525;45.568;5.448;2023-02-01T03:11:11;99220.66;;;7.67;58.28
28267;BME280;15525;45.568;5.448;2023-02-01T03:13:56;99229.38;;;7.74;57.48
28267;BME280;15525;45.568;5.448;2023-02-01T03:16:27;99222.22;;;7.74;57.94
28267;BME280;15525;45.568;5.448;2023-02-01T03:19:03;99215.63;;;7.77;57.29
28267;BME280;15525;45.568;5.448;2023-02-01T03:24:07;99218.94;;;7.72;57.90
28267;BME280;15525;45.568;5.448;2023-02-01T03:26:36;99222.44;;;7.73;57.98
28267;BME280;15525;45.568;5.448;2023-02-01T03:29:17;99212.75;;;7.78;58.07
28267;BME280;15525;45.568;5.448;2023-02-01T03:31:44;99219.78;;;7.73;57.63
28267;BME280;15525;45.568;5.448;2023-02-01T03:34:11;99220.34;;;7.75;57.78
28267;BME280;15525;45.568;5.448;2023-02-01T03:36:44;99232.34;;;7.66;58.41
28267;BME280;15525;45.568;5.448;2023-02-01T03:39:20;99227.03;;;7.48;59.05
28267;BME280;15525;45.568;5.448;2023-02-01T03:41:51;99237.09;;;7.64;58.45
28267;BME280;15525;45.568;5.448;2023-02-01T03:44:45;99231.41;;;7.60;58.73
28267;BME280;15525;45.568;5.448;2023-02-01T03:47:21;99217.19;;;7.66;58.87
28267;BME280;15525;45.568;5.448;2023-02-01T03:50:01;99228.97;;;7.77;58.34
28267;BME280;15525;45.568;5.448;2023-02-01T03:52:43;99230.38;;;7.79;57.55
28267;BME280;15525;45.568;5.448;2023-02-01T03:55:11;99219.78;;;7.73;58.24
28267;BME280;15525;45.568;5.448;2023-02-01T03:58:02;99226.00;;;7.85;57.61
28267;BME280;15525;45.568;5.448;2023-02-01T04:00:29;99224.75;;;7.87;58.04
28267;BME280;15525;45.568;5.448;2023-02-01T04:02:54;99226.00;;;7.85;57.60
28267;BME280;15525;45.568;5.448;2023-02-01T04:05:21;99215.91;;;7.87;58.04
28267;BME280;15525;45.568;5.448;2023-02-01T04:07:46;99217.94;;;7.91;58.45
28267;BME280;15525;45.568;5.448;2023-02-01T04:10:12;99226.06;;;7.96;58.13
28267;BME280;15525;45.568;5.448;2023-02-01T04:12:37;99226.72;;;7.92;58.27
28267;BME280;15525;45.568;5.448;2023-02-01T04:15:04;99230.50;;;7.84;58.52
28267;BME280;15525;45.568;5.448;2023-02-01T04:17:30;99229.16;;;7.75;59.46
28267;BME280;15525;45.568;5.448;2023-02-01T04:19:55;99219.31;;;7.40;60.33
28267;BME280;15525;45.568;5.448;2023-02-01T04:22:21;99224.25;;;7.54;60.24
28267;BME280;15525;45.568;5.448;2023-02-01T04:24:46;99228.97;;;7.77;59.41
28267;BME280;15525;45.568;5.448;2023-02-01T04:27:12;99227.41;;;7.69;59.39
28267;BME280;15525;45.568;5.448;2023-02-01T04:29:37;99228.88;;;7.83;59.09
28267;BME280;15525;45.568;5.448;2023-02-01T04:32:03;99227.16;;;7.89;58.35
28267;BME280;15525;45.568;5.448;2023-02-01T04:34:28;99231.47;;;7.90;58.70
28267;BME280;15525;45.568;5.448;2023-02-01T04:36:54;99218.94;;;7.90;58.29
28267;BME280;15525;45.568;5.448;2023-02-01T04:39:19;99233.94;;;7.91;57.86
28267;BME280;15525;45.568;5.448;2023-02-01T04:41:45;99237.16;;;7.93;57.73
28267;BME280;15525;45.568;5.448;2023-02-01T04:44:17;99236.88;;;8.01;58.01
28267;BME280;15525;45.568;5.448;2023-02-01T04:46:43;99238.28;;;8.04;57.68
28267;BME280;15525;45.568;5.448;2023-02-01T04:49:13;99229.47;;;8.03;57.85
28267;BME280;15525;45.568;5.448;2023-02-01T04:51:39;99245.31;;;7.98;58.69
28267;BME280;15525;45.568;5.448;2023-02-01T04:54:05;99251.06;;;7.95;58.60
28267;BME280;15525;45.568;5.448;2023-02-01T04:56:30;99243.75;;;7.91;58.64
28267;BME280;15525;45.568;5.448;2023-02-01T04:58:56;99247.97;;;7.98;58.03
28267;BME280;15525;45.568;5.448;2023-02-01T05:01:22;99245.81;;;7.89;59.05
28267;BME280;15525;45.568;5.448;2023-02-01T05:03:50;99255.31;;;8.03;58.54
28267;BME280;15525;45.568;5.448;2023-02-01T05:06:15;99254.50;;;8.02;58.31
28267;BME280;15525;45.568;5.448;2023-02-01T05:08:41;99254.94;;;7.99;58.21
28267;BME280;15525;45.568;5.448;2023-02-01T05:11:06;99250.28;;;7.95;58.29
28267;BME280;15525;45.568;5.448;2023-02-01T05:13:31;99265.38;;;8.01;57.87
28267;BME280;15525;45.568;5.448;2023-02-01T05:16:15;99263.47;;;8.08;57.85
28267;BME280;15525;45.568;5.448;2023-02-01T05:18:41;99256.03;;;8.10;58.00
28267;BME280;15525;45.568;5.448;2023-02-01T05:21:07;99256.66;;;8.12;58.36
28267;BME280;15525;45.568;5.448;2023-02-01T05:23:32;99255.00;;;8.11;57.96
28267;BME280;15525;45.568;5.448;2023-02-01T05:26:18;99255.81;;;8.11;57.97
28267;BME280;15525;45.568;5.448;2023-02-01T05:28:43;99260.47;;;8.16;58.27
28267;BME280;15525;45.568;5.448;2023-02-01T05:31:12;99244.66;;;8.03;58.68
28267;BME280;15525;45.568;5.448;2023-02-01T05:33:37;99266.56;;;8.05;58.72
28267;BME280;15525;45.568;5.448;2023-02-01T05:36:03;99255.00;;;8.11;58.41
28267;BME280;15525;45.568;5.448;2023-02-01T05:38:28;99249.31;;;8.07;58.62
28267;BME280;15525;45.568;5.448;2023-02-01T05:40:55;99245.16;;;8.11;57.90
28267;BME280;15525;45.568;5.448;2023-02-01T05:43:21;99259.47;;;8.17;58.46
28267;BME280;15525;45.568;5.448;2023-02-01T05:45:46;99263.47;;;7.90;59.44
28267;BME280;15525;45.568;5.448;2023-02-01T05:48:12;99251.47;;;7.99;59.19
28267;BME280;15525;45.568;5.448;2023-02-01T05:50:37;99243.00;;;8.02;58.62
28267;BME280;15525;45.568;5.448;2023-02-01T05:53:03;99248.88;;;8.10;58.53
28267;BME280;15525;45.568;5.448;2023-02-01T05:55:28;99254.19;;;8.10;58.96
28267;BME280;15525;45.568;5.448;2023-02-01T05:57:53;99245.09;;;8.00;58.86
28267;BME280;15525;45.568;5.448;2023-02-01T06:00:19;99248.47;;;7.53;60.69
28267;BME280;15525;45.568;5.448;2023-02-01T06:02:45;99257.84;;;7.80;60.54
28267;BME280;15525;45.568;5.448;2023-02-01T06:05:10;99265.81;;;7.98;59.16
28267;BME280;15525;45.568;5.448;2023-02-01T06:07:35;99258.34;;;7.70;60.51
28267;BME280;15525;45.568;5.448;2023-02-01T06:10:01;99262.13;;;7.99;59.24
28267;BME280;15525;45.568;5.448;2023-02-01T06:12:26;99269.81;;;7.89;59.94
28267;BME280;15525;45.568;5.448;2023-02-01T06:14:53;99277.38;;;7.92;60.00
28267;BME280;15525;45.568;5.448;2023-02-01T06:17:18;99277.59;;;8.08;59.20
28267;BME280;15525;45.568;5.448;2023-02-01T06:19:44;99271.38;;;7.96;60.13
28267;BME280;15525;45.568;5.448;2023-02-01T06:22:10;99277.53;;;8.15;59.41
28267;BME280;15525;45.568;5.448;2023-02-01T06:24:35;99273.81;;;8.16;59.11
28267;BME280;15525;45.568;5.448;2023-02-01T06:27:01;99272.19;;;7.79;60.75
28267;BME280;15525;45.568;5.448;2023-02-01T06:29:26;99286.06;;;8.05;59.89
28267;BME280;15525;45.568;5.448;2023-02-01T06:31:52;99284.94;;;8.13;59.56
28267;BME280;15525;45.568;5.448;2023-02-01T06:34:17;99291.91;;;8.14;58.97
28267;BME280;15525;45.568;5.448;2023-02-01T06:36:43;99288.19;;;8.15;58.75
28267;BME280;15525;45.568;5.448;2023-02-01T06:39:08;99283.94;;;7.71;60.96
28267;BME280;15525;45.568;5.448;2023-02-01T06:41:34;99296.03;;;8.10;59.33
28267;BME280;15525;45.568;5.448;2023-02-01T06:44:00;99293.22;;;7.87;60.18
28267;BME280;15525;45.568;5.448;2023-02-01T06:46:25;99304.88;;;8.10;59.94
28267;BME280;15525;45.568;5.448;2023-02-01T06:48:51;99304.66;;;8.12;59.54
28267;BME280;15525;45.568;5.448;2023-02-01T06:51:26;99310.56;;;7.96;60.66
28267;BME280;15525;45.568;5.448;2023-02-01T06:53:53;99311.97;;;8.16;59.06
28267;BME280;15525;45.568;5.448;2023-02-01T06:56:18;99319.22;;;8.09;60.03
28267;BME280;15525;45.568;5.448;2023-02-01T06:58:44;99314.81;;;8.21;59.39
28267;BME280;15525;45.568;5.448;2023-02-01T07:01:10;99312.94;;;8.04;60.22
28267;BME280;15525;45.568;5.448;2023-02-01T07:03:36;99316.25;;;7.99;60.77
28267;BME280;15525;45.568;5.448;2023-02-01T07:06:02;99315.72;;;7.91;60.79
28267;BME280;15525;45.568;5.448;2023-02-01T07:08:30;99327.97;;;8.16;59.93
28267;BME280;15525;45.568;5.448;2023-02-01T07:10:56;99316.66;;;8.03;60.44
28267;BME280;15525;45.568;5.448;2023-02-01T07:13:22;99331.72;;;7.91;61.32
28267;BME280;15525;45.568;5.448;2023-02-01T07:15:47;99331.00;;;8.20;60.88
28267;BME280;15525;45.568;5.448;2023-02-01T07:18:14;99324.97;;;8.31;59.47
28267;BME280;15525;45.568;5.448;2023-02-01T07:20:40;99346.59;;;8.41;59.82
28267;BME280;15525;45.568;5.448;2023-02-01T07:23:06;99344.66;;;8.30;60.08
28267;BME280;15525;45.568;5.448;2023-02-01T07:25:31;99342.97;;;8.35;60.03
28267;BME280;15525;45.568;5.448;2023-02-01T07:27:57;99348.09;;;8.37;60.73
28267;BME280;15525;45.568;5.448;2023-02-01T07:30:23;99349.91;;;8.36;60.13
28267;BME280;15525;45.568;5.448;2023-02-01T07:32:48;99358.31;;;8.40;60.79
28267;BME280;15525;45.568;5.448;2023-02-01T07:35:14;99362.53;;;8.47;59.69
28267;BME280;15525;45.568;5.448;2023-02-01T07:37:39;99369.13;;;8.45;60.25
28267;BME280;15525;45.568;5.448;2023-02-01T07:40:05;99360.91;;;8.46;60.13
28267;BME280;15525;45.568;5.448;2023-02-01T07:42:31;99369.00;;;8.40;61.20
28267;BME280;15525;45.568;5.448;2023-02-01T07:44:56;99385.00;;;8.58;61.40
28267;BME280;15525;45.568;5.448;2023-02-01T07:47:22;99386.63;;;8.59;60.18
28267;BME280;15525;45.568;5.448;2023-02-01T07:49:47;99390.47;;;8.45;61.63
28267;BME280;15525;45.568;5.448;2023-02-01T07:52:13;99383.06;;;8.47;61.49
28267;BME280;15525;45.568;5.448;2023-02-01T07:54:41;99385.28;;;8.50;61.67
28267;BME280;15525;45.568;5.448;2023-02-01T07:57:06;99385.56;;;8.60;61.22
28267;BME280;15525;45.568;5.448;2023-02-01T07:59:33;99369.63;;;8.71;60.34
28267;BME280;15525;45.568;5.448;2023-02-01T08:01:59;99370.13;;;8.80;60.29
28267;BME280;15525;45.568;5.448;2023-02-01T08:04:24;99365.69;;;8.74;62.16
28267;BME280;15525;45.568;5.448;2023-02-01T08:06:50;99373.84;;;8.79;62.52
28267;BME280;15525;45.568;5.448;2023-02-01T08:09:15;99364.13;;;8.84;62.22
28267;BME280;15525;45.568;5.448;2023-02-01T08:11:41;99357.00;;;8.96;62.02
28267;BME280;15525;45.568;5.448;2023-02-01T08:14:06;99360.84;;;9.12;60.73
28267;BME280;15525;45.568;5.448;2023-02-01T08:16:32;99351.91;;;9.06;61.24
28267;BME280;15525;45.568;5.448;2023-02-01T08:19:00;99355.03;;;8.38;64.71
28267;BME280;15525;45.568;5.448;2023-02-01T08:21:27;99345.22;;;8.14;65.47
28267;BME280;15525;45.568;5.448;2023-02-01T08:24:02;99342.81;;;8.48;64.06
28267;BME280;15525;45.568;5.448;2023-02-01T08:26:28;99355.88;;;8.38;64.80
28267;BME280;15525;45.568;5.448;2023-02-01T08:28:56;99359.63;;;8.67;64.45
28267;BME280;15525;45.568;5.448;2023-02-01T08:31:24;99366.34;;;8.87;63.75
28267;BME280;15525;45.568;5.448;2023-02-01T08:33:55;99366.63;;;9.27;61.71
28267;BME280;15525;45.568;5.448;2023-02-01T08:36:22;99368.75;;;9.48;61.64
28267;BME280;15525;45.568;5.448;2023-02-01T08:38:48;99363.06;;;9.56;62.07
28267;BME280;15525;45.568;5.448;2023-02-01T08:41:16;99349.72;;;9.67;61.54
28267;BME280;15525;45.568;5.448;2023-02-01T08:43:43;99350.44;;;9.86;61.28
28267;BME280;15525;45.568;5.448;2023-02-01T08:46:09;99358.53;;;10.60;60.83
28267;BME280;15525;45.568;5.448;2023-02-01T08:48:35;99365.41;;;11.40;59.38
28267;BME280;15525;45.568;5.448;2023-02-01T08:51:02;99363.38;;;11.75;56.32
28267;BME280;15525;45.568;5.448;2023-02-01T08:53:28;99356.03;;;11.09;56.42
28267;BME280;15525;45.568;5.448;2023-02-01T08:55:54;99347.53;;;10.22;59.21
28267;BME280;15525;45.568;5.448;2023-02-01T08:58:19;99348.78;;;10.42;59.21
28267;BME280;15525;45.568;5.448;2023-02-01T09:00:47;99358.13;;;9.30;62.29
28267;BME280;15525;45.568;5.448;2023-02-01T09:03:13;99373.41;;;8.46;66.30
28267;BME280;15525;45.568;5.448;2023-02-01T09:05:38;99362.13;;;9.50;63.62
28267;BME280;15525;45.568;5.448;2023-02-01T09:08:05;99365.13;;;10.06;61.02
28267;BME280;15525;45.568;5.448;2023-02-01T09:10:30;99381.41;;;10.05;61.56
28267;BME280;15525;45.568;5.448;2023-02-01T09:12:56;99386.81;;;10.56;60.25
28267;BME280;15525;45.568;5.448;2023-02-01T09:15:22;99388.41;;;10.80;59.45
28267;BME280;15525;45.568;5.448;2023-02-01T09:17:47;99389.88;;;10.87;58.81
28267;BME280;15525;45.568;5.448;2023-02-01T09:20:14;99392.53;;;10.99;58.40
28267;BME280;15525;45.568;5.448;2023-02-01T09:22:39;99398.56;;;11.06;57.91
28267;BME280;15525;45.568;5.448;2023-02-01T09:25:05;99406.00;;;11.04;58.36
28267;BME280;15525;45.568;5.448;2023-02-01T09:27:31;99390.94;;;10.24;61.31
28267;BME280;15525;45.568;5.448;2023-02-01T09:29:56;99399.84;;;10.75;59.72
28267;BME280;15525;45.568;5.448;2023-02-01T09:32:23;99394.50;;;10.64;59.28
28267;BME280;15525;45.568;5.448;2023-02-01T09:34:52;99405.47;;;10.51;60.25
28267;BME280;15525;45.568;5.448;2023-02-01T09:37:18;99396.78;;;10.72;59.48
28267;BME280;15525;45.568;5.448;2023-02-01T09:39:43;99407.66;;;10.54;59.85
28267;BME280;15525;45.568;5.448;2023-02-01T09:47:57;99414.28;;;10.63;60.05
28267;BME280;15525;45.568;5.448;2023-02-01T09:50:36;99421.00;;;10.77;59.01
28267;BME280;15525;45.568;5.448;2023-02-01T09:53:23;99433.63;;;11.04;58.36
28267;BME280;15525;45.568;5.448;2023-02-01T09:55:52;99437.09;;;11.16;58.12
28267;BME280;15525;45.568;5.448;2023-02-01T09:58:40;99439.75;;;10.77;59.19
28267;BME280;15525;45.568;5.448;2023-02-01T10:01:22;99426.63;;;10.64;60.01
28267;BME280;15525;45.568;5.448;2023-02-01T10:03:49;99437.88;;;10.89;59.24
28267;BME280;15525;45.568;5.448;2023-02-01T10:06:49;99422.88;;;11.16;58.63
28267;BME280;15525;45.568;5.448;2023-02-01T10:09:23;99437.03;;;11.00;58.09
28267;BME280;15525;45.568;5.448;2023-02-01T10:14:59;99446.91;;;10.60;59.39
28267;BME280;15525;45.568;5.448;2023-02-01T10:25:30;99476.31;;;10.83;59.52
28267;BME280;15525;45.568;5.448;2023-02-01T10:28:00;99475.28;;;10.49;59.88
28267;BME280;15525;45.568;5.448;2023-02-01T10:30:31;99481.69;;;10.83;59.51
28267;BME280;15525;45.568;5.448;2023-02-01T10:35:39;99469.63;;;11.08;57.86
28267;BME280;15525;45.568;5.448;2023-02-01T10:38:26;99472.44;;;11.41;57.27
28267;BME280;15525;45.568;5.448;2023-02-01T10:40:55;99468.44;;;11.16;57.90
28267;BME280;15525;45.568;5.448;2023-02-01T10:43:21;99476.31;;;11.34;57.85
28267;BME280;15525;45.568;5.448;2023-02-01T10:45:46;99472.28;;;11.20;57.93
28267;BME280;15525;45.568;5.448;2023-02-01T10:48:12;99482.00;;;10.98;58.92
28267;BME280;15525;45.568;5.448;2023-02-01T10:50:48;99469.47;;;10.64;59.95
28267;BME280;15525;45.568;5.448;2023-02-01T10:58:25;99463.41;;;10.68;59.00
28267;BME280;15525;45.568;5.448;2023-02-01T11:00:54;99447.69;;;11.23;57.83
28267;BME280;15525;45.568;5.448;2023-02-01T11:05:55;99437.91;;;10.54;59.69
28267;BME280;15525;45.568;5.448;2023-02-01T11:08:20;99432.38;;;10.95;58.55
28267;BME280;15525;45.568;5.448;2023-02-01T11:10:46;99426.72;;;11.20;57.52
28267;BME280;15525;45.568;5.448;2023-02-01T11:13:15;99408.25;;;11.51;57.01
28267;BME280;15525;45.568;5.448;2023-02-01T11:15:45;99403.84;;;11.90;56.50
28267;BME280;15525;45.568;5.448;2023-02-01T11:18:20;99396.94;;;11.94;56.63
28267;BME280;15525;45.568;5.448;2023-02-01T11:20:49;99400.56;;;12.38;55.26
28267;BME280;15525;45.568;5.448;2023-02-01T11:23:20;99380.75;;;12.06;55.84
28267;BME280;15525;45.568;5.448;2023-02-01T11:25:55;99382.81;;;11.99;55.55
28267;BME280;15525;45.568;5.448;2023-02-01T11:28:24;99393.34;;;12.05;55.58
28267;BME280;15525;45.568;5.448;2023-02-01T11:30:53;99383.63;;;11.82;56.01
28267;BME280;15525;45.568;5.448;2023-02-01T11:33:22;99375.38;;;12.22;54.89
28267;BME280;15525;45.568;5.448;2023-02-01T11:35:51;99375.16;;;12.07;56.15
28267;BME280;15525;45.568;5.448;2023-02-01T11:38:32;99375.13;;;12.24;55.69
28267;BME280;15525;45.568;5.448;2023-02-01T11:41:14;99371.00;;;12.00;55.60
28267;BME280;15525;45.568;5.448;2023-02-01T11:43:59;99368.63;;;11.53;57.23
28267;BME280;15525;45.568;5.448;2023-02-01T11:46:29;99353.56;;;11.64;56.72
28267;BME280;15525;45.568;5.448;2023-02-01T11:48:56;99356.84;;;12.04;55.69
28267;BME280;15525;45.568;5.448;2023-02-01T11:51:42;99354.56;;;12.51;54.69
28267;BME280;15525;45.568;5.448;2023-02-01T11:54:39;99355.28;;;13.11;53.22
28267;BME280;15525;45.568;5.448;2023-02-01T12:00:02;99344.19;;;12.00;54.10
28267;BME280;15525;45.568;5.448;2023-02-01T12:07:50;99332.47;;;12.27;54.97
28267;BME280;15525;45.568;5.448;2023-02-01T12:15:52;99321.78;;;12.70;53.03
28267;BME280;15525;45.568;5.448;2023-02-01T12:24:11;99323.19;;;12.78;52.96
28267;BME280;15525;45.568;5.448;2023-02-01T12:35:04;99318.75;;;11.86;55.02
28267;BME280;15525;45.568;5.448;2023-02-01T12:43:11;99311.84;;;11.90;55.59
28267;BME280;15525;45.568;5.448;2023-02-01T12:45:44;99297.41;;;12.34;55.02
28267;BME280;15525;45.568;5.448;2023-02-01T12:51:12;99294.03;;;11.83;55.07
28267;BME280;15525;45.568;5.448;2023-02-01T12:53:52;99309.06;;;12.01;55.25
28267;BME280;15525;45.568;5.448;2023-02-01T12:56:34;99312.25;;;11.65;56.15
28267;BME280;15525;45.568;5.448;2023-02-01T12:59:19;99308.13;;;11.74;56.04
28267;BME280;15525;45.568;5.448;2023-02-01T13:04:31;99308.72;;;11.48;56.90
28267;BME280;15525;45.568;5.448;2023-02-01T13:07:07;99315.63;;;11.44;56.23
28267;BME280;15525;45.568;5.448;2023-02-01T13:09:45;99317.94;;;11.85;55.65
28267;BME280;15525;45.568;5.448;2023-02-01T13:12:19;99320.00;;;11.33;56.07
28267;BME280;15525;45.568;5.448;2023-02-01T13:14:53;99313.88;;;11.05;56.71
28267;BME280;15525;45.568;5.448;2023-02-01T13:17:26;99314.03;;;11.76;54.80
28267;BME280;15525;45.568;5.448;2023-02-01T13:20:17;99309.81;;;11.80;54.71
28267;BME280;15525;45.568;5.448;2023-02-01T13:22:49;99302.66;;;11.69;54.21
28267;BME280;15525;45.568;5.448;2023-02-01T13:25:34;99315.56;;;12.27;53.55
28267;BME280;15525;45.568;5.448;2023-02-01T13:28:05;99314.28;;;11.74;54.60
28267;BME280;15525;45.568;5.448;2023-02-01T13:33:35;99296.00;;;11.55;54.15
28267;BME280;15525;45.568;5.448;2023-02-01T13:38:57;99285.34;;;12.58;51.56
28267;BME280;15525;45.568;5.448;2023-02-01T13:41:31;99274.41;;;13.44;48.62
28267;BME280;15525;45.568;5.448;2023-02-01T13:44:01;99273.31;;;12.87;48.49
28267;BME280;15525;45.568;5.448;2023-02-01T13:46:28;99282.06;;;12.99;48.14
28267;BME280;15525;45.568;5.448;2023-02-01T13:48:58;99273.41;;;13.96;47.25
28267;BME280;15525;45.568;5.448;2023-02-01T13:51:41;99278.59;;;14.54;44.63
28267;BME280;15525;45.568;5.448;2023-02-01T13:54:33;99259.00;;;14.79;44.09
28267;BME280;15525;45.568;5.448;2023-02-01T13:57:01;99256.06;;;15.20;44.61
28267;BME280;15525;45.568;5.448;2023-02-01T14:10:58;99269.81;;;15.04;43.88
28267;BME280;15525;45.568;5.448;2023-02-01T14:26:19;99251.22;;;15.77;41.35
28267;BME280;15525;45.568;5.448;2023-02-01T14:31:35;99248.13;;;13.97;44.14
28267;BME280;15525;45.568;5.448;2023-02-01T14:34:11;99254.91;;;13.00;46.10
28267;BME280;15525;45.568;5.448;2023-02-01T14:36:47;99259.94;;;12.44;47.62
28267;BME280;15525;45.568;5.448;2023-02-01T14:39:23;99247.63;;;14.05;45.82
28267;BME280;15525;45.568;5.448;2023-02-01T14:41:53;99242.97;;;14.42;44.35
28267;BME280;15525;45.568;5.448;2023-02-01T14:44:27;99234.28;;;13.79;45.27
28267;BME280;15525;45.568;5.448;2023-02-01T14:47:06;99226.44;;;14.19;44.21
28267;BME280;15525;45.568;5.448;2023-02-01T14:49:34;99237.41;;;14.74;44.17
28267;BME280;15525;45.568;5.448;2023-02-01T14:52:04;99233.00;;;14.38;44.08
28267;BME280;15525;45.568;5.448;2023-02-01T14:54:31;99231.13;;;14.43;44.75
28267;BME280;15525;45.568;5.448;2023-02-01T14:56:57;99224.25;;;15.57;43.66
28267;BME280;15525;45.568;5.448;2023-02-01T14:59:25;99241.78;;;15.75;42.16
28267;BME280;15525;45.568;5.448;2023-02-01T15:01:58;99228.78;;;15.92;41.16
28267;BME280;15525;45.568;5.448;2023-02-01T15:04:27;99216.16;;;15.27;42.73
28267;BME280;15525;45.568;5.448;2023-02-01T15:07:07;99215.63;;;15.10;42.51
28267;BME280;15525;45.568;5.448;2023-02-01T15:09:36;99218.88;;;15.17;42.17
28267;BME280;15525;45.568;5.448;2023-02-01T15:12:15;99217.53;;;16.38;40.73
28267;BME280;15525;45.568;5.448;2023-02-01T15:15:22;99220.41;;;15.93;40.49
28267;BME280;15525;45.568;5.448;2023-02-01T15:17:52;99224.38;;;16.16;39.67